Mermaid Ace — 3FCG3 — position and weather

sailwx.info

Track history (hours):
 
Tides and Currents Weather Stations Pressure Air Temp Water Temp Dewpoint Dewpoint Depression Visibility Wind Speed Wind Dir Waves Ship Positions

Mermaid Ace

Last reported at 2017-Oct-08 15:20 UTC. Time now 2017-Oct-18 11:14 UTC.
Position N 36°09' W 128°06'.
Warning: this ship's position is 9 days out of date.

Length 200 m; draft 8.8 m.

Type: Cargo ship. MMSI: 355139000.

Date/timePositionNaut miles runAvg speedWind from/ knotsBaromVisibWave heightAir tempDewpointWater temp
2017-Oct-08 15:20N 36°09' W 128°06'21014.4
2017-Oct-08 00:47N 34°29' W 124°21'312.3
2017-Oct-08 00:30N 34°29' W 124°16'612.7
2017-Oct-08 00:00N 34°29' W 124°09'2712.7
2017-Oct-07 21:52N 34°28' W 123°36'713.3
2017-Oct-07 21:22N 34°28' W 123°28'613.3
2017-Oct-07 20:57N 34°29' W 123°21'613.1
2017-Oct-07 20:30N 34°29' W 123°14'613.0
2017-Oct-07 20:00N 34°29' W 123°06'712.8
2017-Oct-07 19:27N 34°29' W 122°57'613.1
2017-Oct-07 19:00N 34°29' W 122°50'713.4
2017-Oct-07 18:30N 34°29' W 122°42'713.2
2017-Oct-07 18:00N 34°29' W 122°34'713.1
2017-Oct-07 17:30N 34°29' W 122°26'713.1
2017-Oct-07 17:00N 34°29' W 122°18'613.0
2017-Oct-07 16:30N 34°29' W 122°10'713.1
2017-Oct-07 16:00N 34°29' W 122°03'613.0
2017-Oct-07 15:30N 34°29' W 121°55'713.4
2017-Oct-07 15:00N 34°29' W 121°47'713.2
2017-Oct-07 14:30N 34°29' W 121°38'713.3
2017-Oct-07 14:00N 34°29' W 121°30'713.3
2017-Oct-07 13:30N 34°29' W 121°22'613.0
2017-Oct-07 13:00N 34°29' W 121°15'713.0
2017-Oct-07 12:29N 34°29' W 121°06'713.3
2017-Oct-07 11:58N 34°28' W 120°58'613.7
2017-Oct-07 11:30N 34°26' W 120°51'714.2
2017-Oct-07 11:00N 34°24' W 120°42'714.2
2017-Oct-07 10:30N 34°22' W 120°34'814.8
2017-Oct-07 10:00N 34°20' W 120°25'715.0
2017-Oct-07 09:30N 34°18' W 120°17'914.5
2017-Oct-07 08:54N 34°16' W 120°07'2314.2
2017-Oct-07 07:17N 34°10' W 119°40'414.3
2017-Oct-07 06:58N 34°09' W 119°35'714.7
2017-Oct-07 06:29N 34°07' W 119°26'715.1
2017-Oct-07 06:00N 34°05' W 119°18'713.9
2017-Oct-07 05:30N 34°02' W 119°10'713.7
2017-Oct-07 05:01N 33°59' W 119°03'612.5
2017-Oct-07 04:31N 33°55' W 118°57'612.2
2017-Oct-07 04:00N 33°52' W 118°50'611.2
2017-Oct-07 03:31N 33°50' W 118°45'611.2
2017-Oct-07 03:00N 33°47' W 118°39'611.6
2017-Oct-07 02:30N 33°44' W 118°33'611.2
2017-Oct-07 02:00N 33°41' W 118°27'510.3
2017-Oct-07 01:30N 33°39' W 118°21'5 9.7
2017-Oct-07 01:01N 33°38' W 118°15'4 8.3
2017-Oct-07 00:30N 33°41' W 118°12'3 6.6
2017-Oct-07 00:00N 33°44' W 118°12'1 0.9
2017-Oct-06 23:28N 33°45' W 118°13'0 0.0
2017-Oct-06 22:58N 33°45' W 118°13'0 0.0
2017-Oct-06 22:28N 33°45' W 118°13'0 0.0
2017-Oct-06 21:58N 33°45' W 118°13'0 0.0
2017-Oct-06 21:28N 33°45' W 118°13'0 0.0
2017-Oct-06 20:58N 33°45' W 118°13'0 0.0
2017-Oct-06 20:28N 33°45' W 118°13'0 0.0
2017-Oct-06 19:58N 33°45' W 118°13'0 0.0
2017-Oct-06 19:28N 33°45' W 118°13'0 0.0
2017-Oct-06 18:58N 33°45' W 118°13'0 0.0
2017-Oct-06 18:25N 33°45' W 118°13'0 0.0
2017-Oct-06 17:58N 33°45' W 118°13'0 0.0
2017-Oct-06 17:28N 33°45' W 118°13'0 0.0
2017-Oct-06 16:58N 33°45' W 118°13'0 0.0
2017-Oct-06 16:28N 33°45' W 118°13'0 0.0
2017-Oct-06 15:58N 33°45' W 118°13'0 0.0
2017-Oct-06 15:28N 33°45' W 118°13'0 0.0
2017-Oct-06 14:58N 33°45' W 118°13'0 0.0
2017-Oct-06 14:28N 33°45' W 118°13'0 0.0
2017-Oct-06 13:58N 33°45' W 118°13'0 0.0
2017-Oct-06 13:28N 33°45' W 118°13'0 0.1
2017-Oct-06 13:00N 33°45' W 118°13'1 2.3
2017-Oct-06 12:30N 33°44' W 118°12'4 8.6
2017-Oct-06 12:01N 33°40' W 118°10'4 7.4
2017-Oct-06 11:30N 33°36' W 118°10'3 6.6
2017-Oct-06 11:00N 33°33' W 118°08'4 8.0
2017-Oct-06 10:30N 33°29' W 118°07'4 8.8
2017-Oct-06 10:01N 33°25' W 118°05'4 8.1
2017-Oct-06 09:30N 33°21' W 118°03'4 8.9
2017-Oct-06 09:00N 33°17' W 118°02'5 9.2
2017-Oct-06 08:30N 33°12' W 118°00'5 9.5
2017-Oct-06 08:00N 33°08' W 117°58'5 9.4
2017-Oct-06 07:30N 33°03' W 117°57'5 9.6
2017-Oct-06 07:00N 32°59' W 117°55'510.7
2017-Oct-06 06:30N 32°54' W 117°53'815.6
2017-Oct-06 06:00N 32°46' W 117°51'816.4
2017-Oct-06 05:30N 32°38' W 117°48'816.5
2017-Oct-06 05:01N 32°31' W 117°45'816.7
2017-Oct-06 04:30N 32°22' W 117°42'816.8
2017-Oct-06 04:00N 32°14' W 117°39'816.5
2017-Oct-06 03:30N 32°07' W 117°36'816.0
2017-Oct-06 03:00N 31°59' W 117°34'815.9
2017-Oct-06 02:30N 31°51' W 117°31'815.9
2017-Oct-06 02:00N 31°44' W 117°28'815.8
2017-Oct-06 01:30N 31°36' W 117°26'815.5
2017-Oct-06 01:00N 31°29' W 117°23'815.5
2017-Oct-06 00:30N 31°21' W 117°20'815.6
2017-Oct-06 00:00N 31°14' W 117°18'815.2
2017-Oct-05 23:30N 31°07' W 117°15'815.4
2017-Oct-05 23:00N 30°59' W 117°13'815.6
2017-Oct-05 22:30N 30°52' W 117°10'816.3
2017-Oct-05 22:01N 30°44' W 117°07'816.2
2017-Oct-05 21:30N 30°36' W 117°04'816.3
2017-Oct-05 21:00N 30°28' W 117°02'816.4
2017-Oct-05 20:30N 30°21' W 116°59'816.1
2017-Oct-05 20:00N 30°13' W 116°56'816.2
2017-Oct-05 19:30N 30°05' W 116°53'816.6
2017-Oct-05 19:00N 29°57' W 116°51'816.5
2017-Oct-05 18:30N 29°49' W 116°48'1716.7
2017-Oct-05 17:30N 29°33' W 116°42'816.9
2017-Oct-05 17:00N 29°25' W 116°39'2517.0
2017-Oct-05 15:30N 29°01' W 116°31'916.7
2017-Oct-05 14:59N 28°52' W 116°28'816.8
2017-Oct-05 14:30N 28°45' W 116°25'1016.7
2017-Oct-05 13:55N 28°35' W 116°22'716.4
2017-Oct-05 13:30N 28°29' W 116°20'816.4
2017-Oct-05 13:00N 28°21' W 116°17'1815.8
2017-Oct-05 11:50N 28°04' W 116°10'3115.3
2017-Oct-05 09:48N 27°38' W 115°50'515.4
2017-Oct-05 09:29N 27°34' W 115°47'915.5
2017-Oct-05 08:56N 27°28' W 115°40'1415.6
2017-Oct-05 08:03N 27°17' W 115°30'116.1
2017-Oct-05 08:00N 27°16' W 115°30'815.5
2017-Oct-05 07:30N 27°11' W 115°24'815.4
2017-Oct-05 07:00N 27°05' W 115°19'815.1
2017-Oct-05 06:30N 26°59' W 115°14'1115.0
2017-Oct-05 05:47N 26°50' W 115°06'415.2
2017-Oct-05 05:30N 26°47' W 115°03'1215.2
2017-Oct-05 04:43N 26°38' W 114°54'1815.2
2017-Oct-05 03:33N 26°24' W 114°42'3215.9
2017-Oct-05 01:32N 25°59' W 114°19'016.6
2017-Oct-05 01:30N 25°59' W 114°19'816.3
2017-Oct-05 01:00N 25°53' W 114°13'  
Track history (hours):
 
Tides and Currents Weather Stations Pressure Air Temp Water Temp Dewpoint Dewpoint Depression Visibility Wind Speed Wind Dir Waves Ship Positions

Mermaid Ace

Last reported at 2017-Oct-08 15:20 UTC. Time now 2017-Oct-18 11:14 UTC.
Position N 36°09' W 128°06'.
Warning: this ship's position is 9 days out of date.

Length 200 m; draft 8.8 m.

Type: Cargo ship. MMSI: 355139000.

Date/timePositionNaut miles runAvg speedWind from/ knotsBaromVisibWave heightAir tempDewpointWater temp
2017-Oct-08 15:20N 36°09' W 128°06'21014.4
2017-Oct-08 00:47N 34°29' W 124°21'312.3
2017-Oct-08 00:30N 34°29' W 124°16'612.7
2017-Oct-08 00:00N 34°29' W 124°09'2712.7
2017-Oct-07 21:52N 34°28' W 123°36'713.3
2017-Oct-07 21:22N 34°28' W 123°28'613.3
2017-Oct-07 20:57N 34°29' W 123°21'613.1
2017-Oct-07 20:30N 34°29' W 123°14'613.0
2017-Oct-07 20:00N 34°29' W 123°06'712.8
2017-Oct-07 19:27N 34°29' W 122°57'613.1
2017-Oct-07 19:00N 34°29' W 122°50'713.4
2017-Oct-07 18:30N 34°29' W 122°42'713.2
2017-Oct-07 18:00N 34°29' W 122°34'713.1
2017-Oct-07 17:30N 34°29' W 122°26'713.1
2017-Oct-07 17:00N 34°29' W 122°18'613.0
2017-Oct-07 16:30N 34°29' W 122°10'713.1
2017-Oct-07 16:00N 34°29' W 122°03'613.0
2017-Oct-07 15:30N 34°29' W 121°55'713.4
2017-Oct-07 15:00N 34°29' W 121°47'713.2
2017-Oct-07 14:30N 34°29' W 121°38'713.3
2017-Oct-07 14:00N 34°29' W 121°30'713.3
2017-Oct-07 13:30N 34°29' W 121°22'613.0
2017-Oct-07 13:00N 34°29' W 121°15'713.0
2017-Oct-07 12:29N 34°29' W 121°06'713.3
2017-Oct-07 11:58N 34°28' W 120°58'613.7
2017-Oct-07 11:30N 34°26' W 120°51'714.2
2017-Oct-07 11:00N 34°24' W 120°42'714.2
2017-Oct-07 10:30N 34°22' W 120°34'814.8
2017-Oct-07 10:00N 34°20' W 120°25'715.0
2017-Oct-07 09:30N 34°18' W 120°17'914.5
2017-Oct-07 08:54N 34°16' W 120°07'2314.2
2017-Oct-07 07:17N 34°10' W 119°40'414.3
2017-Oct-07 06:58N 34°09' W 119°35'714.7
2017-Oct-07 06:29N 34°07' W 119°26'715.1
2017-Oct-07 06:00N 34°05' W 119°18'713.9
2017-Oct-07 05:30N 34°02' W 119°10'713.7
2017-Oct-07 05:01N 33°59' W 119°03'612.5
2017-Oct-07 04:31N 33°55' W 118°57'612.2
2017-Oct-07 04:00N 33°52' W 118°50'611.2
2017-Oct-07 03:31N 33°50' W 118°45'611.2
2017-Oct-07 03:00N 33°47' W 118°39'611.6
2017-Oct-07 02:30N 33°44' W 118°33'611.2
2017-Oct-07 02:00N 33°41' W 118°27'510.3
2017-Oct-07 01:30N 33°39' W 118°21'5 9.7
2017-Oct-07 01:01N 33°38' W 118°15'4 8.3
2017-Oct-07 00:30N 33°41' W 118°12'3 6.6
2017-Oct-07 00:00N 33°44' W 118°12'1 0.9
2017-Oct-06 23:28N 33°45' W 118°13'0 0.0
2017-Oct-06 22:58N 33°45' W 118°13'0 0.0
2017-Oct-06 22:28N 33°45' W 118°13'0 0.0
2017-Oct-06 21:58N 33°45' W 118°13'0 0.0
2017-Oct-06 21:28N 33°45' W 118°13'0 0.0
2017-Oct-06 20:58N 33°45' W 118°13'0 0.0
2017-Oct-06 20:28N 33°45' W 118°13'0 0.0
2017-Oct-06 19:58N 33°45' W 118°13'0 0.0
2017-Oct-06 19:28N 33°45' W 118°13'0 0.0
2017-Oct-06 18:58N 33°45' W 118°13'0 0.0
2017-Oct-06 18:25N 33°45' W 118°13'0 0.0
2017-Oct-06 17:58N 33°45' W 118°13'0 0.0
2017-Oct-06 17:28N 33°45' W 118°13'0 0.0
2017-Oct-06 16:58N 33°45' W 118°13'0 0.0
2017-Oct-06 16:28N 33°45' W 118°13'0 0.0
2017-Oct-06 15:58N 33°45' W 118°13'0 0.0
2017-Oct-06 15:28N 33°45' W 118°13'0 0.0
2017-Oct-06 14:58N 33°45' W 118°13'0 0.0
2017-Oct-06 14:28N 33°45' W 118°13'0 0.0
2017-Oct-06 13:58N 33°45' W 118°13'0 0.0
2017-Oct-06 13:28N 33°45' W 118°13'0 0.1
2017-Oct-06 13:00N 33°45' W 118°13'1 2.3
2017-Oct-06 12:30N 33°44' W 118°12'4 8.6
2017-Oct-06 12:01N 33°40' W 118°10'4 7.4
2017-Oct-06 11:30N 33°36' W 118°10'3 6.6
2017-Oct-06 11:00N 33°33' W 118°08'4 8.0
2017-Oct-06 10:30N 33°29' W 118°07'4 8.8
2017-Oct-06 10:01N 33°25' W 118°05'4 8.1
2017-Oct-06 09:30N 33°21' W 118°03'4 8.9
2017-Oct-06 09:00N 33°17' W 118°02'5 9.2
2017-Oct-06 08:30N 33°12' W 118°00'5 9.5
2017-Oct-06 08:00N 33°08' W 117°58'5 9.4
2017-Oct-06 07:30N 33°03' W 117°57'5 9.6
2017-Oct-06 07:00N 32°59' W 117°55'510.7
2017-Oct-06 06:30N 32°54' W 117°53'815.6
2017-Oct-06 06:00N 32°46' W 117°51'816.4
2017-Oct-06 05:30N 32°38' W 117°48'816.5
2017-Oct-06 05:01N 32°31' W 117°45'816.7
2017-Oct-06 04:30N 32°22' W 117°42'816.8
2017-Oct-06 04:00N 32°14' W 117°39'816.5
2017-Oct-06 03:30N 32°07' W 117°36'816.0
2017-Oct-06 03:00N 31°59' W 117°34'815.9
2017-Oct-06 02:30N 31°51' W 117°31'815.9
2017-Oct-06 02:00N 31°44' W 117°28'815.8
2017-Oct-06 01:30N 31°36' W 117°26'815.5
2017-Oct-06 01:00N 31°29' W 117°23'815.5
2017-Oct-06 00:30N 31°21' W 117°20'815.6
2017-Oct-06 00:00N 31°14' W 117°18'815.2
2017-Oct-05 23:30N 31°07' W 117°15'815.4
2017-Oct-05 23:00N 30°59' W 117°13'815.6
2017-Oct-05 22:30N 30°52' W 117°10'816.3
2017-Oct-05 22:01N 30°44' W 117°07'816.2
2017-Oct-05 21:30N 30°36' W 117°04'816.3
2017-Oct-05 21:00N 30°28' W 117°02'816.4
2017-Oct-05 20:30N 30°21' W 116°59'816.1
2017-Oct-05 20:00N 30°13' W 116°56'816.2
2017-Oct-05 19:30N 30°05' W 116°53'816.6
2017-Oct-05 19:00N 29°57' W 116°51'816.5
2017-Oct-05 18:30N 29°49' W 116°48'1716.7
2017-Oct-05 17:30N 29°33' W 116°42'816.9
2017-Oct-05 17:00N 29°25' W 116°39'2517.0
2017-Oct-05 15:30N 29°01' W 116°31'916.7
2017-Oct-05 14:59N 28°52' W 116°28'816.8
2017-Oct-05 14:30N 28°45' W 116°25'1016.7
2017-Oct-05 13:55N 28°35' W 116°22'716.4
2017-Oct-05 13:30N 28°29' W 116°20'816.4
2017-Oct-05 13:00N 28°21' W 116°17'1815.8
2017-Oct-05 11:50N 28°04' W 116°10'3115.3
2017-Oct-05 09:48N 27°38' W 115°50'515.4
2017-Oct-05 09:29N 27°34' W 115°47'915.5
2017-Oct-05 08:56N 27°28' W 115°40'1415.6
2017-Oct-05 08:03N 27°17' W 115°30'116.1
2017-Oct-05 08:00N 27°16' W 115°30'815.5
2017-Oct-05 07:30N 27°11' W 115°24'815.4
2017-Oct-05 07:00N 27°05' W 115°19'815.1
2017-Oct-05 06:30N 26°59' W 115°14'1115.0
2017-Oct-05 05:47N 26°50' W 115°06'415.2
2017-Oct-05 05:30N 26°47' W 115°03'1215.2
2017-Oct-05 04:43N 26°38' W 114°54'1815.2
2017-Oct-05 03:33N 26°24' W 114°42'3215.9
2017-Oct-05 01:32N 25°59' W 114°19'016.6
2017-Oct-05 01:30N 25°59' W 114°19'816.3
2017-Oct-05 01:00N 25°53' W 114°13'  

Dump ship's entire track history